sensor_id;sensor_type;location;lat;lon;timestamp;pressure;altitude;pressure_sealevel;temperature
40624;BMP280;26325;48.594;11.650;2022-10-31T00:00:42;97123.53;;;10.09
40624;BMP280;26325;48.594;11.650;2022-10-31T00:03:08;97125.09;;;10.10
40624;BMP280;26325;48.594;11.650;2022-10-31T00:05:35;97128.09;;;10.07
40624;BMP280;26325;48.594;11.650;2022-10-31T00:08:01;97128.09;;;10.07
40624;BMP280;26325;48.594;11.650;2022-10-31T00:10:26;97133.28;;;10.07
40624;BMP280;26325;48.594;11.650;2022-10-31T00:12:54;97129.38;;;10.05
40624;BMP280;26325;48.594;11.650;2022-10-31T00:15:20;97126.66;;;10.00
40624;BMP280;26325;48.594;11.650;2022-10-31T00:17:46;97130.22;;;9.99
40624;BMP280;26325;48.594;11.650;2022-10-31T00:20:11;97127.78;;;10.04
40624;BMP280;26325;48.594;11.650;2022-10-31T00:22:37;97121.94;;;10.08
40624;BMP280;26325;48.594;11.650;2022-10-31T00:25:03;97127.09;;;10.08
40624;BMP280;26325;48.594;11.650;2022-10-31T00:27:28;97139.56;;;9.89
40624;BMP280;26325;48.594;11.650;2022-10-31T00:29:54;97137.41;;;9.86
40624;BMP280;26325;48.594;11.650;2022-10-31T00:32:19;97127.19;;;9.90
40624;BMP280;26325;48.594;11.650;2022-10-31T00:34:45;97126.88;;;9.87
40624;BMP280;26325;48.594;11.650;2022-10-31T00:37:10;97134.69;;;9.81
40624;BMP280;26325;48.594;11.650;2022-10-31T00:39:36;97130.28;;;9.70
40624;BMP280;26325;48.594;11.650;2022-10-31T00:42:01;97131.88;;;9.71
40624;BMP280;26325;48.594;11.650;2022-10-31T00:44:27;97126.34;;;9.68
40624;BMP280;26325;48.594;11.650;2022-10-31T00:46:52;97124.81;;;9.78
40624;BMP280;26325;48.594;11.650;2022-10-31T00:49:17;97124.38;;;9.81
40624;BMP280;26325;48.594;11.650;2022-10-31T00:51:43;97118.00;;;9.83
40624;BMP280;26325;48.594;11.650;2022-10-31T00:54:08;97126.75;;;9.82
40624;BMP280;26325;48.594;11.650;2022-10-31T00:56:34;97120.78;;;9.82
40624;BMP280;26325;48.594;11.650;2022-10-31T00:58:59;97125.16;;;9.81
40624;BMP280;26325;48.594;11.650;2022-10-31T01:01:25;97125.16;;;9.81
40624;BMP280;26325;48.594;11.650;2022-10-31T01:03:50;97123.88;;;9.72
40624;BMP280;26325;48.594;11.650;2022-10-31T01:06:16;97124.66;;;9.62
40624;BMP280;26325;48.594;11.650;2022-10-31T01:08:41;97127.47;;;9.60
40624;BMP280;26325;48.594;11.650;2022-10-31T01:11:25;97133.31;;;9.67
40624;BMP280;26325;48.594;11.650;2022-10-31T01:13:52;97131.28;;;9.69
40624;BMP280;26325;48.594;11.650;2022-10-31T01:16:21;97132.19;;;9.63
40624;BMP280;26325;48.594;11.650;2022-10-31T01:18:46;97130.03;;;9.60
40624;BMP280;26325;48.594;11.650;2022-10-31T01:21:13;97126.19;;;9.51
40624;BMP280;26325;48.594;11.650;2022-10-31T01:23:40;97122.94;;;9.56
40624;BMP280;26325;48.594;11.650;2022-10-31T01:26:14;97126.19;;;9.51
40624;BMP280;26325;48.594;11.650;2022-10-31T01:28:52;97135.94;;;9.50
40624;BMP280;26325;48.594;11.650;2022-10-31T01:31:19;97129.19;;;9.37
40624;BMP280;26325;48.594;11.650;2022-10-31T01:33:45;97130.41;;;9.35
40624;BMP280;26325;48.594;11.650;2022-10-31T01:36:22;97127.09;;;9.46
40624;BMP280;26325;48.594;11.650;2022-10-31T01:38:48;97125.41;;;9.51
40624;BMP280;26325;48.594;11.650;2022-10-31T01:41:17;97123.19;;;9.54
40624;BMP280;26325;48.594;11.650;2022-10-31T01:43:44;97125.31;;;9.57
40624;BMP280;26325;48.594;11.650;2022-10-31T01:46:10;97125.19;;;9.52
40624;BMP280;26325;48.594;11.650;2022-10-31T01:48:36;97130.22;;;9.48
40624;BMP280;26325;48.594;11.650;2022-10-31T01:51:02;97129.44;;;9.47
40624;BMP280;26325;48.594;11.650;2022-10-31T01:53:30;97123.72;;;9.16
40624;BMP280;26325;48.594;11.650;2022-10-31T01:55:56;97121.47;;;9.09
40624;BMP280;26325;48.594;11.650;2022-10-31T01:58:26;97120.44;;;9.10
40624;BMP280;26325;48.594;11.650;2022-10-31T02:00:55;97123.31;;;9.19
40624;BMP280;26325;48.594;11.650;2022-10-31T02:03:22;97117.25;;;9.25
40624;BMP280;26325;48.594;11.650;2022-10-31T02:05:49;97110.78;;;9.34
40624;BMP280;26325;48.594;11.650;2022-10-31T02:08:23;97117.06;;;9.38
40624;BMP280;26325;48.594;11.650;2022-10-31T02:10:53;97130.53;;;9.40
40624;BMP280;26325;48.594;11.650;2022-10-31T02:13:19;97122.00;;;9.28
40624;BMP280;26325;48.594;11.650;2022-10-31T02:15:46;97119.44;;;9.11
40624;BMP280;26325;48.594;11.650;2022-10-31T02:18:12;97121.53;;;9.02
40624;BMP280;26325;48.594;11.650;2022-10-31T02:21:17;97115.16;;;9.05
40624;BMP280;26325;48.594;11.650;2022-10-31T02:38:37;97137.31;;;9.23
40624;BMP280;26325;48.594;11.650;2022-10-31T02:47:01;97133.81;;;9.18
40624;BMP280;26325;48.594;11.650;2022-10-31T02:49:44;97134.91;;;9.11
40624;BMP280;26325;48.594;11.650;2022-10-31T02:52:19;97134.19;;;9.04
40624;BMP280;26325;48.594;11.650;2022-10-31T02:54:46;97131.56;;;8.93
40624;BMP280;26325;48.594;11.650;2022-10-31T02:57:12;97134.78;;;8.88
40624;BMP280;26325;48.594;11.650;2022-10-31T02:59:39;97134.38;;;8.91
40624;BMP280;26325;48.594;11.650;2022-10-31T03:04:53;97135.28;;;8.79
40624;BMP280;26325;48.594;11.650;2022-10-31T03:13:08;97135.25;;;8.85
40624;BMP280;26325;48.594;11.650;2022-10-31T03:15:44;97131.22;;;8.89
40624;BMP280;26325;48.594;11.650;2022-10-31T03:18:15;97124.47;;;8.88
40624;BMP280;26325;48.594;11.650;2022-10-31T03:20:45;97132.50;;;8.80
40624;BMP280;26325;48.594;11.650;2022-10-31T03:23:14;97131.31;;;8.83
40624;BMP280;26325;48.594;11.650;2022-10-31T03:25:41;97132.38;;;8.75
40624;BMP280;26325;48.594;11.650;2022-10-31T03:28:07;97143.31;;;8.71
40624;BMP280;26325;48.594;11.650;2022-10-31T03:30:34;97135.25;;;8.68
40624;BMP280;26325;48.594;11.650;2022-10-31T03:33:02;97134.28;;;8.62
40624;BMP280;26325;48.594;11.650;2022-10-31T03:35:29;97134.66;;;8.66
40624;BMP280;26325;48.594;11.650;2022-10-31T03:37:55;97143.47;;;8.58
40624;BMP280;26325;48.594;11.650;2022-10-31T03:40:22;97137.94;;;8.55
40624;BMP280;26325;48.594;11.650;2022-10-31T03:42:54;97136.09;;;8.62
40624;BMP280;26325;48.594;11.650;2022-10-31T03:45:25;97140.53;;;8.73
40624;BMP280;26325;48.594;11.650;2022-10-31T03:47:51;97144.69;;;8.74
40624;BMP280;26325;48.594;11.650;2022-10-31T03:50:18;97147.66;;;8.71
40624;BMP280;26325;48.594;11.650;2022-10-31T03:52:57;97147.53;;;8.66
40624;BMP280;26325;48.594;11.650;2022-10-31T03:55:32;97142.69;;;8.75
40624;BMP280;26325;48.594;11.650;2022-10-31T03:58:03;97149.41;;;8.76
40624;BMP280;26325;48.594;11.650;2022-10-31T04:00:30;97144.75;;;8.85
40624;BMP280;26325;48.594;11.650;2022-10-31T04:03:13;97144.66;;;8.91
40624;BMP280;26325;48.594;11.650;2022-10-31T04:05:39;97143.00;;;8.96
40624;BMP280;26325;48.594;11.650;2022-10-31T04:08:09;97146.06;;;9.05
40624;BMP280;26325;48.594;11.650;2022-10-31T04:10:37;97137.06;;;8.96
40624;BMP280;26325;48.594;11.650;2022-10-31T04:13:06;97136.72;;;8.93
40624;BMP280;26325;48.594;11.650;2022-10-31T04:15:35;97129.50;;;9.01
40624;BMP280;26325;48.594;11.650;2022-10-31T04:18:02;97139.50;;;9.09
40624;BMP280;26325;48.594;11.650;2022-10-31T04:20:30;97138.81;;;9.13
40624;BMP280;26325;48.594;11.650;2022-10-31T04:22:56;97139.56;;;9.20
40624;BMP280;26325;48.594;11.650;2022-10-31T04:25:22;97136.72;;;9.21
40624;BMP280;26325;48.594;11.650;2022-10-31T04:27:47;97137.09;;;9.25
40624;BMP280;26325;48.594;11.650;2022-10-31T04:30:13;97140.56;;;9.30
40624;BMP280;26325;48.594;11.650;2022-10-31T04:32:38;97146.47;;;9.37
40624;BMP280;26325;48.594;11.650;2022-10-31T04:35:04;97151.72;;;9.42
40624;BMP280;26325;48.594;11.650;2022-10-31T04:37:29;97144.78;;;9.42
40624;BMP280;26325;48.594;11.650;2022-10-31T04:39:55;97141.72;;;9.34
40624;BMP280;26325;48.594;11.650;2022-10-31T04:42:20;97139.00;;;9.29
40624;BMP280;26325;48.594;11.650;2022-10-31T04:44:46;97145.66;;;9.36
40624;BMP280;26325;48.594;11.650;2022-10-31T04:47:11;97141.41;;;9.42
40624;BMP280;26325;48.594;11.650;2022-10-31T04:49:37;97153.53;;;9.41
40624;BMP280;26325;48.594;11.650;2022-10-31T04:52:02;97146.69;;;9.47
40624;BMP280;26325;48.594;11.650;2022-10-31T04:54:28;97147.94;;;9.55
40624;BMP280;26325;48.594;11.650;2022-10-31T04:56:53;97143.72;;;9.61
40624;BMP280;26325;48.594;11.650;2022-10-31T04:59:19;97146.88;;;9.63
40624;BMP280;26325;48.594;11.650;2022-10-31T05:01:44;97142.72;;;9.62
40624;BMP280;26325;48.594;11.650;2022-10-31T05:04:10;97143.63;;;9.67
40624;BMP280;26325;48.594;11.650;2022-10-31T05:06:35;97138.47;;;9.67
40624;BMP280;26325;48.594;11.650;2022-10-31T05:09:01;97143.50;;;9.73
40624;BMP280;26325;48.594;11.650;2022-10-31T05:11:26;97146.84;;;9.80
40624;BMP280;26325;48.594;11.650;2022-10-31T05:13:51;97135.25;;;9.83
40624;BMP280;26325;48.594;11.650;2022-10-31T05:16:17;97142.22;;;9.82
40624;BMP280;26325;48.594;11.650;2022-10-31T05:18:42;97126.81;;;9.76
40624;BMP280;26325;48.594;11.650;2022-10-31T05:21:08;97131.50;;;9.68
40624;BMP280;26325;48.594;11.650;2022-10-31T05:23:35;97136.31;;;9.64
40624;BMP280;26325;48.594;11.650;2022-10-31T05:26:01;97125.47;;;9.62
40624;BMP280;26325;48.594;11.650;2022-10-31T05:28:26;97125.78;;;9.66
40624;BMP280;26325;48.594;11.650;2022-10-31T05:30:52;97133.09;;;9.69
40624;BMP280;26325;48.594;11.650;2022-10-31T05:33:17;97123.88;;;9.72
40624;BMP280;26325;48.594;11.650;2022-10-31T05:35:43;97121.09;;;9.74
40624;BMP280;26325;48.594;11.650;2022-10-31T05:38:10;97122.84;;;9.80
40624;BMP280;26325;48.594;11.650;2022-10-31T05:40:36;97126.81;;;9.76
40624;BMP280;26325;48.594;11.650;2022-10-31T05:43:01;97131.28;;;9.69
40624;BMP280;26325;48.594;11.650;2022-10-31T05:45:27;97124.75;;;9.55
40624;BMP280;26325;48.594;11.650;2022-10-31T05:47:58;97126.78;;;9.53
40624;BMP280;26325;48.594;11.650;2022-10-31T05:50:25;97126.31;;;9.56
40624;BMP280;26325;48.594;11.650;2022-10-31T05:53:01;97137.22;;;9.58
40624;BMP280;26325;48.594;11.650;2022-10-31T05:55:30;97143.38;;;9.57
40624;BMP280;26325;48.594;11.650;2022-10-31T05:57:58;97138.69;;;9.66
40624;BMP280;26325;48.594;11.650;2022-10-31T06:00:24;97142.50;;;9.63
40624;BMP280;26325;48.594;11.650;2022-10-31T06:02:59;97145.31;;;9.62
40624;BMP280;26325;48.594;11.650;2022-10-31T06:05:26;97144.94;;;9.58
40624;BMP280;26325;48.594;11.650;2022-10-31T06:07:51;97144.38;;;9.56
40624;BMP280;26325;48.594;11.650;2022-10-31T06:10:16;97140.09;;;9.51
40624;BMP280;26325;48.594;11.650;2022-10-31T06:12:44;97145.25;;;9.51
40624;BMP280;26325;48.594;11.650;2022-10-31T06:15:10;97137.09;;;9.53
40624;BMP280;26325;48.594;11.650;2022-10-31T06:17:35;97141.94;;;9.61
40624;BMP280;26325;48.594;11.650;2022-10-31T06:20:04;97150.34;;;9.68
40624;BMP280;26325;48.594;11.650;2022-10-31T06:22:30;97153.03;;;9.62
40624;BMP280;26325;48.594;11.650;2022-10-31T06:24:55;97160.84;;;9.55
40624;BMP280;26325;48.594;11.650;2022-10-31T06:27:21;97162.16;;;9.47
40624;BMP280;26325;48.594;11.650;2022-10-31T06:29:47;97154.31;;;9.42
40624;BMP280;26325;48.594;11.650;2022-10-31T06:32:12;97159.16;;;9.50
40624;BMP280;26325;48.594;11.650;2022-10-31T06:34:39;97157.25;;;9.56
40624;BMP280;26325;48.594;11.650;2022-10-31T06:37:10;97158.25;;;9.55
40624;BMP280;26325;48.594;11.650;2022-10-31T06:39:36;97156.41;;;9.62
40624;BMP280;26325;48.594;11.650;2022-10-31T06:42:02;97159.53;;;9.64
40624;BMP280;26325;48.594;11.650;2022-10-31T06:44:28;97150.25;;;9.74
40624;BMP280;26325;48.594;11.650;2022-10-31T06:46:53;97156.03;;;9.88
40624;BMP280;26325;48.594;11.650;2022-10-31T06:49:19;97153.91;;;10.07
40624;BMP280;26325;48.594;11.650;2022-10-31T06:51:47;97152.25;;;10.24
40624;BMP280;26325;48.594;11.650;2022-10-31T06:54:13;97155.84;;;10.34
40624;BMP280;26325;48.594;11.650;2022-10-31T06:56:38;97152.94;;;10.53
40624;BMP280;26325;48.594;11.650;2022-10-31T06:59:04;97158.53;;;10.72
40624;BMP280;26325;48.594;11.650;2022-10-31T07:01:29;97153.00;;;10.91
40624;BMP280;26325;48.594;11.650;2022-10-31T07:03:55;97151.47;;;11.06
40624;BMP280;26325;48.594;11.650;2022-10-31T07:06:20;97144.16;;;11.15
40624;BMP280;26325;48.594;11.650;2022-10-31T07:08:45;97141.75;;;11.24
40624;BMP280;26325;48.594;11.650;2022-10-31T07:11:13;97148.72;;;11.24
40624;BMP280;26325;48.594;11.650;2022-10-31T07:13:40;97155.69;;;11.23
40624;BMP280;26325;48.594;11.650;2022-10-31T07:16:07;97157.28;;;11.24
40624;BMP280;26325;48.594;11.650;2022-10-31T07:18:33;97149.81;;;11.28
40624;BMP280;26325;48.594;11.650;2022-10-31T07:20:58;97149.47;;;11.36
40624;BMP280;26325;48.594;11.650;2022-10-31T07:23:24;97153.19;;;11.40
40624;BMP280;26325;48.594;11.650;2022-10-31T07:25:58;97162.16;;;11.48
40624;BMP280;26325;48.594;11.650;2022-10-31T07:28:25;97154.34;;;11.60
40624;BMP280;26325;48.594;11.650;2022-10-31T07:30:52;97161.56;;;11.74
40624;BMP280;26325;48.594;11.650;2022-10-31T07:33:17;97139.47;;;11.82
40624;BMP280;26325;48.594;11.650;2022-10-31T07:35:43;97149.38;;;11.85
40624;BMP280;26325;48.594;11.650;2022-10-31T07:38:10;97146.00;;;11.85
40624;BMP280;26325;48.594;11.650;2022-10-31T07:40:35;97151.81;;;11.92
40624;BMP280;26325;48.594;11.650;2022-10-31T07:43:02;97139.81;;;12.02
40624;BMP280;26325;48.594;11.650;2022-10-31T07:45:30;97144.53;;;12.21
40624;BMP280;26325;48.594;11.650;2022-10-31T07:47:58;97145.16;;;12.49
40624;BMP280;26325;48.594;11.650;2022-10-31T07:50:29;97134.56;;;12.66
40624;BMP280;26325;48.594;11.650;2022-10-31T07:55:28;97136.22;;;12.93
40624;BMP280;26325;48.594;11.650;2022-10-31T07:58:14;97139.50;;;13.05
40624;BMP280;26325;48.594;11.650;2022-10-31T08:00:41;97132.06;;;13.13
40624;BMP280;26325;48.594;11.650;2022-10-31T08:03:09;97129.22;;;13.14
40624;BMP280;26325;48.594;11.650;2022-10-31T08:05:35;97128.22;;;13.15
40624;BMP280;26325;48.594;11.650;2022-10-31T08:08:01;97126.75;;;13.24
40624;BMP280;26325;48.594;11.650;2022-10-31T08:10:27;97118.00;;;13.30
40624;BMP280;26325;48.594;11.650;2022-10-31T08:13:04;97113.47;;;13.42
40624;BMP280;26325;48.594;11.650;2022-10-31T08:15:30;97123.19;;;13.56
40624;BMP280;26325;48.594;11.650;2022-10-31T08:17:56;97123.63;;;13.74
40624;BMP280;26325;48.594;11.650;2022-10-31T08:20:22;97120.94;;;13.90
40624;BMP280;26325;48.594;11.650;2022-10-31T08:22:59;97115.63;;;14.06
40624;BMP280;26325;48.594;11.650;2022-10-31T08:25:26;97112.34;;;14.20
40624;BMP280;26325;48.594;11.650;2022-10-31T08:27:55;97103.09;;;14.34
40624;BMP280;26325;48.594;11.650;2022-10-31T08:30:25;97105.53;;;14.55
40624;BMP280;26325;48.594;11.650;2022-10-31T08:33:04;97102.31;;;14.79
40624;BMP280;26325;48.594;11.650;2022-10-31T08:35:31;97097.50;;;15.02
40624;BMP280;26325;48.594;11.650;2022-10-31T08:37:57;97096.81;;;15.35
40624;BMP280;26325;48.594;11.650;2022-10-31T08:40:26;97095.31;;;15.88
40624;BMP280;26325;48.594;11.650;2022-10-31T08:42:59;97097.63;;;16.67
40624;BMP280;26325;48.594;11.650;2022-10-31T08:45:26;97079.44;;;17.15
40624;BMP280;26325;48.594;11.650;2022-10-31T08:47:51;97088.59;;;17.59
40624;BMP280;26325;48.594;11.650;2022-10-31T08:50:17;97081.38;;;18.17
40624;BMP280;26325;48.594;11.650;2022-10-31T08:52:43;97068.56;;;18.43
40624;BMP280;26325;48.594;11.650;2022-10-31T08:55:08;97070.19;;;18.39
40624;BMP280;26325;48.594;11.650;2022-10-31T08:57:34;97070.97;;;18.40
40624;BMP280;26325;48.594;11.650;2022-10-31T08:59:59;97082.25;;;18.35
40624;BMP280;26325;48.594;11.650;2022-10-31T09:02:25;97079.47;;;18.27
40624;BMP280;26325;48.594;11.650;2022-10-31T09:04:50;97075.19;;;18.08
40624;BMP280;26325;48.594;11.650;2022-10-31T09:07:16;97067.78;;;17.82
40624;BMP280;26325;48.594;11.650;2022-10-31T09:09:41;97075.34;;;17.51
40624;BMP280;26325;48.594;11.650;2022-10-31T09:12:07;97075.00;;;17.15
40624;BMP280;26325;48.594;11.650;2022-10-31T09:14:32;97072.56;;;17.33
40624;BMP280;26325;48.594;11.650;2022-10-31T09:16:57;97063.16;;;17.32
40624;BMP280;26325;48.594;11.650;2022-10-31T09:19:23;97063.56;;;17.11
40624;BMP280;26325;48.594;11.650;2022-10-31T09:21:52;97060.34;;;17.24
40624;BMP280;26325;48.594;11.650;2022-10-31T09:24:18;97060.56;;;18.07
40624;BMP280;26325;48.594;11.650;2022-10-31T09:26:43;97056.31;;;18.67
40624;BMP280;26325;48.594;11.650;2022-10-31T09:29:08;97048.75;;;19.83
40624;BMP280;26325;48.594;11.650;2022-10-31T09:31:35;97042.69;;;20.01
40624;BMP280;26325;48.594;11.650;2022-10-31T09:34:00;97045.56;;;20.30
40624;BMP280;26325;48.594;11.650;2022-10-31T09:36:26;97037.56;;;20.66
40624;BMP280;26325;48.594;11.650;2022-10-31T09:38:51;97039.03;;;20.72
40624;BMP280;26325;48.594;11.650;2022-10-31T09:44:26;97036.84;;;21.96
40624;BMP280;26325;48.594;11.650;2022-10-31T09:50:14;97038.44;;;22.56
40624;BMP280;26325;48.594;11.650;2022-10-31T09:52:43;97031.44;;;22.22
40624;BMP280;26325;48.594;11.650;2022-10-31T09:55:17;97033.97;;;20.89
40624;BMP280;26325;48.594;11.650;2022-10-31T09:57:43;97037.84;;;21.04
40624;BMP280;26325;48.594;11.650;2022-10-31T10:00:16;97040.69;;;21.90
40624;BMP280;26325;48.594;11.650;2022-10-31T10:02:57;97025.50;;;22.68
40624;BMP280;26325;48.594;11.650;2022-10-31T10:05:29;97022.44;;;23.37
40624;BMP280;26325;48.594;11.650;2022-10-31T10:08:11;97020.59;;;23.63
40624;BMP280;26325;48.594;11.650;2022-10-31T10:19:39;97019.34;;;22.81
40624;BMP280;26325;48.594;11.650;2022-10-31T10:30:34;97014.41;;;22.50
40624;BMP280;26325;48.594;11.650;2022-10-31T10:33:10;97014.84;;;22.81
40624;BMP280;26325;48.594;11.650;2022-10-31T10:35:41;97008.41;;;22.95
40624;BMP280;26325;48.594;11.650;2022-10-31T10:41:04;97005.50;;;22.59
40624;BMP280;26325;48.594;11.650;2022-10-31T10:43:37;97000.16;;;22.51
40624;BMP280;26325;48.594;11.650;2022-10-31T10:48:53;97003.97;;;22.66
40624;BMP280;26325;48.594;11.650;2022-10-31T10:51:23;96995.19;;;22.79
40624;BMP280;26325;48.594;11.650;2022-10-31T10:59:41;96989.16;;;22.49
40624;BMP280;26325;48.594;11.650;2022-10-31T11:02:22;96980.97;;;22.20
40624;BMP280;26325;48.594;11.650;2022-10-31T11:04:51;96985.28;;;21.65
40624;BMP280;26325;48.594;11.650;2022-10-31T11:07:17;96982.75;;;21.39
40624;BMP280;26325;48.594;11.650;2022-10-31T11:09:42;96974.03;;;21.17
40624;BMP280;26325;48.594;11.650;2022-10-31T11:12:29;96972.75;;;20.80
40624;BMP280;26325;48.594;11.650;2022-10-31T11:15:00;96971.97;;;20.40
40624;BMP280;26325;48.594;11.650;2022-10-31T11:17:34;96970.16;;;20.22
40624;BMP280;26325;48.594;11.650;2022-10-31T11:20:24;96969.00;;;20.02
40624;BMP280;26325;48.594;11.650;2022-10-31T11:22:49;96963.38;;;19.95
40624;BMP280;26325;48.594;11.650;2022-10-31T11:25:26;96958.34;;;19.81
40624;BMP280;26325;48.594;11.650;2022-10-31T11:28:02;96969.59;;;19.68
40624;BMP280;26325;48.594;11.650;2022-10-31T11:30:28;96964.00;;;19.56
40624;BMP280;26325;48.594;11.650;2022-10-31T11:32:55;96963.31;;;19.33
40624;BMP280;26325;48.594;11.650;2022-10-31T11:35:22;96953.63;;;19.15
40624;BMP280;26325;48.594;11.650;2022-10-31T11:37:49;96958.50;;;19.04
40624;BMP280;26325;48.594;11.650;2022-10-31T11:40:20;96964.00;;;18.84
40624;BMP280;26325;48.594;11.650;2022-10-31T11:42:46;96962.47;;;18.83
40624;BMP280;26325;48.594;11.650;2022-10-31T11:45:17;96952.38;;;18.72
40624;BMP280;26325;48.594;11.650;2022-10-31T11:47:47;96946.00;;;18.60
40624;BMP280;26325;48.594;11.650;2022-10-31T11:50:37;96953.78;;;18.65
40624;BMP280;26325;48.594;11.650;2022-10-31T11:53:10;96944.44;;;18.59
40624;BMP280;26325;48.594;11.650;2022-10-31T11:55:38;96946.72;;;18.65
40624;BMP280;26325;48.594;11.650;2022-10-31T11:58:24;96944.31;;;18.68
40624;BMP280;26325;48.594;11.650;2022-10-31T12:00:52;96935.53;;;18.60
40624;BMP280;26325;48.594;11.650;2022-10-31T12:05:48;96942.31;;;18.61
40624;BMP280;26325;48.594;11.650;2022-10-31T12:08:15;96926.13;;;18.59
40624;BMP280;26325;48.594;11.650;2022-10-31T12:16:52;96920.41;;;18.57
40624;BMP280;26325;48.594;11.650;2022-10-31T12:22:31;96918.47;;;18.44
40624;BMP280;26325;48.594;11.650;2022-10-31T12:33:52;96910.44;;;18.41
40624;BMP280;26325;48.594;11.650;2022-10-31T12:44:40;96904.59;;;19.03
40624;BMP280;26325;48.594;11.650;2022-10-31T12:58:33;96890.38;;;18.54
40624;BMP280;26325;48.594;11.650;2022-10-31T13:02:17;96885.69;;;18.51
40624;BMP280;26325;48.594;11.650;2022-10-31T13:07:00;96875.56;;;18.45
40624;BMP280;26325;48.594;11.650;2022-10-31T13:09:34;96876.75;;;18.34
40624;BMP280;26325;48.594;11.650;2022-10-31T13:12:16;96861.94;;;18.30
40624;BMP280;26325;48.594;11.650;2022-10-31T13:17:24;96872.31;;;18.53
40624;BMP280;26325;48.594;11.650;2022-10-31T13:19:57;96857.44;;;18.89
40624;BMP280;26325;48.594;11.650;2022-10-31T13:22:28;96859.69;;;19.27
40624;BMP280;26325;48.594;11.650;2022-10-31T13:25:03;96852.28;;;19.65
40624;BMP280;26325;48.594;11.650;2022-10-31T13:27:42;96841.22;;;20.21
40624;BMP280;26325;48.594;11.650;2022-10-31T13:30:19;96842.81;;;20.69
40624;BMP280;26325;48.594;11.650;2022-10-31T13:33:01;96849.75;;;21.21
40624;BMP280;26325;48.594;11.650;2022-10-31T13:46:49;96820.25;;;22.38
40624;BMP280;26325;48.594;11.650;2022-10-31T13:54:46;96812.72;;;21.31
40624;BMP280;26325;48.594;11.650;2022-10-31T13:57:19;96812.06;;;21.26
40624;BMP280;26325;48.594;11.650;2022-10-31T14:00:22;96811.75;;;21.27
40624;BMP280;26325;48.594;11.650;2022-10-31T14:02:52;96804.53;;;20.90
40624;BMP280;26325;48.594;11.650;2022-10-31T14:05:30;96813.97;;;20.56
40624;BMP280;26325;48.594;11.650;2022-10-31T14:07:59;96812.94;;;20.31
40624;BMP280;26325;48.594;11.650;2022-10-31T14:12:50;96809.59;;;19.78
40624;BMP280;26325;48.594;11.650;2022-10-31T14:15:21;96810.78;;;19.41
40624;BMP280;26325;48.594;11.650;2022-10-31T14:17:50;96811.06;;;19.26
40624;BMP280;26325;48.594;11.650;2022-10-31T14:22:44;96815.94;;;18.65
40624;BMP280;26325;48.594;11.650;2022-10-31T14:25:35;96808.91;;;18.43
40624;BMP280;26325;48.594;11.650;2022-10-31T14:28:22;96803.00;;;18.37
40624;BMP280;26325;48.594;11.650;2022-10-31T14:30:57;96801.84;;;18.25
40624;BMP280;26325;48.594;11.650;2022-10-31T14:33:25;96806.56;;;18.05
40624;BMP280;26325;48.594;11.650;2022-10-31T14:36:04;96796.75;;;17.97
40624;BMP280;26325;48.594;11.650;2022-10-31T14:47:35;96788.78;;;17.61
40624;BMP280;26325;48.594;11.650;2022-10-31T14:50:20;96775.75;;;17.56
40624;BMP280;26325;48.594;11.650;2022-10-31T14:52:53;96777.44;;;17.48
40624;BMP280;26325;48.594;11.650;2022-10-31T14:55:19;96774.88;;;17.43
40624;BMP280;26325;48.594;11.650;2022-10-31T14:57:50;96768.44;;;17.35
40624;BMP280;26325;48.594;11.650;2022-10-31T15:00:19;96770.44;;;17.20
40624;BMP280;26325;48.594;11.650;2022-10-31T15:05:20;96756.09;;;17.18
40624;BMP280;26325;48.594;11.650;2022-10-31T15:10:36;96762.56;;;16.93
40624;BMP280;26325;48.594;11.650;2022-10-31T15:13:10;96765.59;;;16.72
40624;BMP280;26325;48.594;11.650;2022-10-31T15:15:38;96764.97;;;16.52
40624;BMP280;26325;48.594;11.650;2022-10-31T15:18:05;96764.88;;;16.29
40624;BMP280;26325;48.594;11.650;2022-10-31T15:20:37;96767.53;;;16.24
40624;BMP280;26325;48.594;11.650;2022-10-31T15:23:04;96772.19;;;16.27
40624;BMP280;26325;48.594;11.650;2022-10-31T15:25:33;96763.22;;;16.05
40624;BMP280;26325;48.594;11.650;2022-10-31T15:27:59;96759.88;;;15.85
40624;BMP280;26325;48.594;11.650;2022-10-31T15:30:26;96765.16;;;15.70
40624;BMP280;26325;48.594;11.650;2022-10-31T15:32:52;96769.91;;;15.54
40624;BMP280;26325;48.594;11.650;2022-10-31T15:35:29;96757.16;;;15.52
40624;BMP280;26325;48.594;11.650;2022-10-31T15:37:57;96748.06;;;15.55
40624;BMP280;26325;48.594;11.650;2022-10-31T15:40:24;96750.63;;;15.64
40624;BMP280;26325;48.594;11.650;2022-10-31T15:42:56;96741.78;;;15.65
40624;BMP280;26325;48.594;11.650;2022-10-31T15:45:23;96741.81;;;15.56
40624;BMP280;26325;48.594;11.650;2022-10-31T15:50:41;96738.66;;;15.63
40624;BMP280;26325;48.594;11.650;2022-10-31T15:53:18;96743.81;;;15.68
40624;BMP280;26325;48.594;11.650;2022-10-31T15:55:50;96735.00;;;15.64
40624;BMP280;26325;48.594;11.650;2022-10-31T15:58:16;96735.56;;;15.57
40624;BMP280;26325;48.594;11.650;2022-10-31T16:00:43;96733.19;;;15.60
40624;BMP280;26325;48.594;11.650;2022-10-31T16:05:46;96735.34;;;15.43
40624;BMP280;26325;48.594;11.650;2022-10-31T16:11:13;96726.22;;;15.41
40624;BMP280;26325;48.594;11.650;2022-10-31T16:16:26;96723.13;;;15.34
40624;BMP280;26325;48.594;11.650;2022-10-31T16:18:54;96727.81;;;15.37
40624;BMP280;26325;48.594;11.650;2022-10-31T16:21:37;96728.59;;;15.33
40624;BMP280;26325;48.594;11.650;2022-10-31T16:24:27;96740.34;;;15.25
40624;BMP280;26325;48.594;11.650;2022-10-31T16:27:06;96740.34;;;15.25
40624;BMP280;26325;48.594;11.650;2022-10-31T16:29:43;96733.59;;;15.20
40624;BMP280;26325;48.594;11.650;2022-10-31T16:32:30;96747.13;;;15.17
40624;BMP280;26325;48.594;11.650;2022-10-31T16:37:33;96746.34;;;15.11
40624;BMP280;26325;48.594;11.650;2022-10-31T16:39:59;96747.66;;;15.09
40624;BMP280;26325;48.594;11.650;2022-10-31T16:42:24;96747.66;;;15.09
40624;BMP280;26325;48.594;11.650;2022-10-31T16:44:51;96749.50;;;15.04
40624;BMP280;26325;48.594;11.650;2022-10-31T16:47:17;96746.13;;;15.03
40624;BMP280;26325;48.594;11.650;2022-10-31T16:49:43;96758.09;;;14.94
40624;BMP280;26325;48.594;11.650;2022-10-31T16:52:09;96747.41;;;14.91
40624;BMP280;26325;48.594;11.650;2022-10-31T16:54:34;96758.84;;;14.85